sensor_id;sensor_type;location;lat;lon;timestamp;P1;durP1;ratioP1;P2;durP2;ratioP2
12976;SDS011;6553;48.412;9.514;2023-03-01T00:01:13;4.75;;;4.35;;
12976;SDS011;6553;48.412;9.514;2023-03-01T00:03:45;4.75;;;4.35;;
12976;SDS011;6553;48.412;9.514;2023-03-01T00:06:11;4.75;;;4.35;;
12976;SDS011;6553;48.412;9.514;2023-03-01T00:08:37;5.18;;;4.68;;
12976;SDS011;6553;48.412;9.514;2023-03-01T00:13:31;4.85;;;4.35;;
12976;SDS011;6553;48.412;9.514;2023-03-01T00:15:57;4.57;;;4.18;;
12976;SDS011;6553;48.412;9.514;2023-03-01T00:18:23;4.88;;;4.47;;
12976;SDS011;6553;48.412;9.514;2023-03-01T00:20:50;5.15;;;4.65;;
12976;SDS011;6553;48.412;9.514;2023-03-01T00:23:20;4.75;;;4.35;;
12976;SDS011;6553;48.412;9.514;2023-03-01T00:25:48;4.40;;;4.00;;
12976;SDS011;6553;48.412;9.514;2023-03-01T00:28:14;4.50;;;4.10;;
12976;SDS011;6553;48.412;9.514;2023-03-01T00:30:40;4.93;;;4.53;;
12976;SDS011;6553;48.412;9.514;2023-03-01T00:33:06;4.78;;;4.35;;
12976;SDS011;6553;48.412;9.514;2023-03-01T00:35:33;4.28;;;3.88;;
12976;SDS011;6553;48.412;9.514;2023-03-01T00:37:59;5.05;;;4.57;;
12976;SDS011;6553;48.412;9.514;2023-03-01T00:40:26;4.45;;;4.05;;
12976;SDS011;6553;48.412;9.514;2023-03-01T00:42:53;4.85;;;4.45;;
12976;SDS011;6553;48.412;9.514;2023-03-01T00:45:20;4.80;;;4.40;;
12976;SDS011;6553;48.412;9.514;2023-03-01T00:47:47;4.85;;;4.45;;
12976;SDS011;6553;48.412;9.514;2023-03-01T00:50:14;4.88;;;4.47;;
12976;SDS011;6553;48.412;9.514;2023-03-01T00:52:40;4.90;;;4.50;;
12976;SDS011;6553;48.412;9.514;2023-03-01T00:55:06;5.70;;;5.20;;
12976;SDS011;6553;48.412;9.514;2023-03-01T00:57:33;4.90;;;4.50;;
12976;SDS011;6553;48.412;9.514;2023-03-01T00:59:58;4.90;;;4.50;;
12976;SDS011;6553;48.412;9.514;2023-03-01T01:02:25;5.32;;;4.82;;
12976;SDS011;6553;48.412;9.514;2023-03-01T01:04:51;4.65;;;4.25;;
12976;SDS011;6553;48.412;9.514;2023-03-01T01:07:17;4.75;;;4.18;;
12976;SDS011;6553;48.412;9.514;2023-03-01T01:09:45;4.70;;;4.30;;
12976;SDS011;6553;48.412;9.514;2023-03-01T01:12:11;4.47;;;4.07;;
12976;SDS011;6553;48.412;9.514;2023-03-01T01:14:37;4.68;;;4.28;;
12976;SDS011;6553;48.412;9.514;2023-03-01T01:17:03;4.63;;;4.22;;
12976;SDS011;6553;48.412;9.514;2023-03-01T01:19:29;4.78;;;4.38;;
12976;SDS011;6553;48.412;9.514;2023-03-01T01:21:55;4.80;;;4.40;;
12976;SDS011;6553;48.412;9.514;2023-03-01T01:24:21;5.05;;;4.65;;
12976;SDS011;6553;48.412;9.514;2023-03-01T01:26:47;4.95;;;4.55;;
12976;SDS011;6553;48.412;9.514;2023-03-01T01:29:14;4.55;;;4.15;;
12976;SDS011;6553;48.412;9.514;2023-03-01T01:31:40;4.90;;;4.50;;
12976;SDS011;6553;48.412;9.514;2023-03-01T01:34:09;4.68;;;4.28;;
12976;SDS011;6553;48.412;9.514;2023-03-01T01:36:41;4.72;;;4.28;;
12976;SDS011;6553;48.412;9.514;2023-03-01T01:39:07;5.00;;;4.60;;
12976;SDS011;6553;48.412;9.514;2023-03-01T01:41:38;4.88;;;4.47;;
12976;SDS011;6553;48.412;9.514;2023-03-01T01:44:10;5.50;;;5.05;;
12976;SDS011;6553;48.412;9.514;2023-03-01T01:47:00;5.32;;;4.93;;
12976;SDS011;6553;48.412;9.514;2023-03-01T01:49:41;4.93;;;4.47;;
12976;SDS011;6553;48.412;9.514;2023-03-01T01:52:35;5.53;;;4.63;;
12976;SDS011;6553;48.412;9.514;2023-03-01T01:55:04;4.55;;;4.15;;
12976;SDS011;6553;48.412;9.514;2023-03-01T02:00:14;4.45;;;4.05;;
12976;SDS011;6553;48.412;9.514;2023-03-01T02:02:44;5.43;;;4.93;;
12976;SDS011;6553;48.412;9.514;2023-03-01T02:05:25;5.60;;;5.10;;
12976;SDS011;6553;48.412;9.514;2023-03-01T02:08:01;4.90;;;4.50;;
12976;SDS011;6553;48.412;9.514;2023-03-01T02:10:28;4.70;;;4.30;;
12976;SDS011;6553;48.412;9.514;2023-03-01T02:12:58;5.35;;;4.85;;
12976;SDS011;6553;48.412;9.514;2023-03-01T02:15:26;4.45;;;4.05;;
12976;SDS011;6553;48.412;9.514;2023-03-01T02:17:52;5.10;;;4.60;;
12976;SDS011;6553;48.412;9.514;2023-03-01T02:23:29;5.28;;;4.88;;
12976;SDS011;6553;48.412;9.514;2023-03-01T02:26:03;5.00;;;4.60;;
12976;SDS011;6553;48.412;9.514;2023-03-01T02:28:58;5.20;;;4.70;;
12976;SDS011;6553;48.412;9.514;2023-03-01T02:31:25;4.70;;;4.30;;
12976;SDS011;6553;48.412;9.514;2023-03-01T02:34:15;4.72;;;4.32;;
12976;SDS011;6553;48.412;9.514;2023-03-01T02:36:59;4.95;;;4.28;;
12976;SDS011;6553;48.412;9.514;2023-03-01T02:39:37;5.40;;;4.90;;
12976;SDS011;6553;48.412;9.514;2023-03-01T02:42:10;5.15;;;4.72;;
12976;SDS011;6553;48.412;9.514;2023-03-01T02:44:40;5.25;;;4.80;;
12976;SDS011;6553;48.412;9.514;2023-03-01T02:47:06;5.57;;;5.07;;
12976;SDS011;6553;48.412;9.514;2023-03-01T02:49:33;4.93;;;4.53;;
12976;SDS011;6553;48.412;9.514;2023-03-01T02:57:39;4.85;;;4.45;;
12976;SDS011;6553;48.412;9.514;2023-03-01T03:00:09;4.93;;;4.43;;
12976;SDS011;6553;48.412;9.514;2023-03-01T03:02:47;5.32;;;4.82;;
12976;SDS011;6553;48.412;9.514;2023-03-01T03:05:23;5.07;;;4.65;;
12976;SDS011;6553;48.412;9.514;2023-03-01T03:07:56;5.60;;;5.10;;
12976;SDS011;6553;48.412;9.514;2023-03-01T03:10:30;5.68;;;5.20;;
12976;SDS011;6553;48.412;9.514;2023-03-01T03:13:11;5.72;;;5.22;;
12976;SDS011;6553;48.412;9.514;2023-03-01T03:19:47;5.65;;;5.15;;
12976;SDS011;6553;48.412;9.514;2023-03-01T03:22:12;5.13;;;4.60;;
12976;SDS011;6553;48.412;9.514;2023-03-01T03:24:38;5.93;;;5.40;;
12976;SDS011;6553;48.412;9.514;2023-03-01T03:27:05;5.43;;;4.93;;
12976;SDS011;6553;48.412;9.514;2023-03-01T03:29:32;5.35;;;4.85;;
12976;SDS011;6553;48.412;9.514;2023-03-01T03:31:58;5.00;;;4.60;;
12976;SDS011;6553;48.412;9.514;2023-03-01T03:34:24;5.38;;;4.70;;
12976;SDS011;6553;48.412;9.514;2023-03-01T03:36:53;4.70;;;4.30;;
12976;SDS011;6553;48.412;9.514;2023-03-01T03:39:22;5.20;;;4.80;;
12976;SDS011;6553;48.412;9.514;2023-03-01T03:41:48;5.10;;;4.70;;
12976;SDS011;6553;48.412;9.514;2023-03-01T03:44:14;4.95;;;4.55;;
12976;SDS011;6553;48.412;9.514;2023-03-01T03:46:40;5.28;;;4.78;;
12976;SDS011;6553;48.412;9.514;2023-03-01T03:49:06;5.47;;;4.90;;
12976;SDS011;6553;48.412;9.514;2023-03-01T03:51:31;4.88;;;4.47;;
12976;SDS011;6553;48.412;9.514;2023-03-01T03:53:57;4.68;;;4.38;;
12976;SDS011;6553;48.412;9.514;2023-03-01T03:56:23;5.55;;;5.05;;
12976;SDS011;6553;48.412;9.514;2023-03-01T03:58:51;5.20;;;4.70;;
12976;SDS011;6553;48.412;9.514;2023-03-01T04:01:18;4.93;;;4.53;;
12976;SDS011;6553;48.412;9.514;2023-03-01T04:03:44;5.05;;;4.65;;
12976;SDS011;6553;48.412;9.514;2023-03-01T04:06:13;5.53;;;5.03;;
12976;SDS011;6553;48.412;9.514;2023-03-01T04:08:39;5.93;;;5.43;;
12976;SDS011;6553;48.412;9.514;2023-03-01T04:11:06;5.32;;;4.85;;
12976;SDS011;6553;48.412;9.514;2023-03-01T04:13:51;5.43;;;4.93;;
12976;SDS011;6553;48.412;9.514;2023-03-01T04:16:19;6.25;;;5.40;;
12976;SDS011;6553;48.412;9.514;2023-03-01T04:18:45;5.10;;;4.60;;
12976;SDS011;6553;48.412;9.514;2023-03-01T04:21:11;5.28;;;4.88;;
12976;SDS011;6553;48.412;9.514;2023-03-01T04:23:37;5.10;;;4.60;;
12976;SDS011;6553;48.412;9.514;2023-03-01T04:26:04;4.70;;;4.30;;
12976;SDS011;6553;48.412;9.514;2023-03-01T04:31:01;4.97;;;4.57;;
12976;SDS011;6553;48.412;9.514;2023-03-01T04:33:47;5.43;;;5.00;;
12976;SDS011;6553;48.412;9.514;2023-03-01T04:36:19;4.65;;;4.25;;
12976;SDS011;6553;48.412;9.514;2023-03-01T04:38:48;5.13;;;4.63;;
12976;SDS011;6553;48.412;9.514;2023-03-01T04:41:16;5.22;;;4.82;;
12976;SDS011;6553;48.412;9.514;2023-03-01T04:43:44;5.35;;;4.85;;
12976;SDS011;6553;48.412;9.514;2023-03-01T04:46:11;5.75;;;5.25;;
12976;SDS011;6553;48.412;9.514;2023-03-01T04:48:41;5.47;;;4.97;;
12976;SDS011;6553;48.412;9.514;2023-03-01T04:51:09;5.22;;;4.72;;
12976;SDS011;6553;48.412;9.514;2023-03-01T04:53:39;5.13;;;4.63;;
12976;SDS011;6553;48.412;9.514;2023-03-01T04:56:06;4.38;;;4.03;;
12976;SDS011;6553;48.412;9.514;2023-03-01T04:58:32;5.75;;;5.22;;
12976;SDS011;6553;48.412;9.514;2023-03-01T05:00:58;4.90;;;4.50;;
12976;SDS011;6553;48.412;9.514;2023-03-01T05:03:24;5.32;;;4.82;;
12976;SDS011;6553;48.412;9.514;2023-03-01T05:05:50;4.88;;;4.47;;
12976;SDS011;6553;48.412;9.514;2023-03-01T05:08:17;5.15;;;4.75;;
12976;SDS011;6553;48.412;9.514;2023-03-01T05:10:45;5.00;;;4.60;;
12976;SDS011;6553;48.412;9.514;2023-03-01T05:13:16;5.70;;;5.20;;
12976;SDS011;6553;48.412;9.514;2023-03-01T05:15:57;5.30;;;4.80;;
12976;SDS011;6553;48.412;9.514;2023-03-01T05:18:26;4.93;;;4.53;;
12976;SDS011;6553;48.412;9.514;2023-03-01T05:20:56;5.10;;;4.70;;
12976;SDS011;6553;48.412;9.514;2023-03-01T05:23:33;4.90;;;4.50;;
12976;SDS011;6553;48.412;9.514;2023-03-01T05:26:00;5.47;;;4.97;;
12976;SDS011;6553;48.412;9.514;2023-03-01T05:28:28;5.28;;;4.68;;
12976;SDS011;6553;48.412;9.514;2023-03-01T05:30:55;5.38;;;4.88;;
12976;SDS011;6553;48.412;9.514;2023-03-01T05:33:22;5.25;;;4.85;;
12976;SDS011;6553;48.412;9.514;2023-03-01T05:35:50;5.00;;;4.60;;
12976;SDS011;6553;48.412;9.514;2023-03-01T05:38:18;4.95;;;4.55;;
12976;SDS011;6553;48.412;9.514;2023-03-01T05:40:46;4.97;;;4.57;;
12976;SDS011;6553;48.412;9.514;2023-03-01T05:43:14;5.07;;;4.63;;
12976;SDS011;6553;48.412;9.514;2023-03-01T05:45:41;6.07;;;4.97;;
12976;SDS011;6553;48.412;9.514;2023-03-01T05:48:08;5.40;;;4.90;;
12976;SDS011;6553;48.412;9.514;2023-03-01T05:50:38;5.13;;;4.63;;
12976;SDS011;6553;48.412;9.514;2023-03-01T05:55:42;5.45;;;4.95;;
12976;SDS011;6553;48.412;9.514;2023-03-01T05:58:16;5.22;;;4.80;;
12976;SDS011;6553;48.412;9.514;2023-03-01T06:00:45;5.90;;;5.40;;
12976;SDS011;6553;48.412;9.514;2023-03-01T06:03:14;4.97;;;4.47;;
12976;SDS011;6553;48.412;9.514;2023-03-01T06:05:42;5.85;;;5.30;;
12976;SDS011;6553;48.412;9.514;2023-03-01T06:08:10;5.40;;;5.00;;
12976;SDS011;6553;48.412;9.514;2023-03-01T06:10:36;5.28;;;4.78;;
12976;SDS011;6553;48.412;9.514;2023-03-01T06:13:02;5.63;;;5.13;;
12976;SDS011;6553;48.412;9.514;2023-03-01T06:15:28;5.03;;;4.63;;
12976;SDS011;6553;48.412;9.514;2023-03-01T06:17:54;5.18;;;4.68;;
12976;SDS011;6553;48.412;9.514;2023-03-01T06:20:24;5.28;;;4.78;;
12976;SDS011;6553;48.412;9.514;2023-03-01T06:22:52;4.75;;;4.35;;
12976;SDS011;6553;48.412;9.514;2023-03-01T06:25:22;4.78;;;4.40;;
12976;SDS011;6553;48.412;9.514;2023-03-01T06:27:50;5.57;;;5.07;;
12976;SDS011;6553;48.412;9.514;2023-03-01T06:30:17;5.10;;;4.70;;
12976;SDS011;6553;48.412;9.514;2023-03-01T06:32:45;5.28;;;4.78;;
12976;SDS011;6553;48.412;9.514;2023-03-01T06:35:12;5.35;;;4.90;;
12976;SDS011;6553;48.412;9.514;2023-03-01T06:37:42;5.43;;;4.93;;
12976;SDS011;6553;48.412;9.514;2023-03-01T06:40:09;5.05;;;4.55;;
12976;SDS011;6553;48.412;9.514;2023-03-01T06:42:37;5.30;;;4.80;;
12976;SDS011;6553;48.412;9.514;2023-03-01T06:45:05;4.53;;;4.22;;
12976;SDS011;6553;48.412;9.514;2023-03-01T06:47:33;5.18;;;4.68;;
12976;SDS011;6553;48.412;9.514;2023-03-01T06:49:59;5.03;;;4.63;;
12976;SDS011;6553;48.412;9.514;2023-03-01T06:52:26;6.05;;;5.45;;
12976;SDS011;6553;48.412;9.514;2023-03-01T06:54:52;5.57;;;5.07;;
12976;SDS011;6553;48.412;9.514;2023-03-01T06:57:18;6.20;;;5.03;;
12976;SDS011;6553;48.412;9.514;2023-03-01T06:59:44;5.82;;;5.32;;
12976;SDS011;6553;48.412;9.514;2023-03-01T07:02:10;5.50;;;5.00;;
12976;SDS011;6553;48.412;9.514;2023-03-01T07:04:37;5.25;;;4.85;;
12976;SDS011;6553;48.412;9.514;2023-03-01T07:07:03;4.88;;;4.47;;
12976;SDS011;6553;48.412;9.514;2023-03-01T07:09:29;4.57;;;4.18;;
12976;SDS011;6553;48.412;9.514;2023-03-01T07:11:56;5.45;;;4.93;;
12976;SDS011;6553;48.412;9.514;2023-03-01T07:14:22;6.25;;;5.65;;
12976;SDS011;6553;48.412;9.514;2023-03-01T07:16:51;5.63;;;5.10;;
12976;SDS011;6553;48.412;9.514;2023-03-01T07:19:19;4.95;;;4.55;;
12976;SDS011;6553;48.412;9.514;2023-03-01T07:21:46;5.10;;;4.70;;
12976;SDS011;6553;48.412;9.514;2023-03-01T07:24:12;5.38;;;4.68;;
12976;SDS011;6553;48.412;9.514;2023-03-01T07:26:38;5.55;;;5.03;;
12976;SDS011;6553;48.412;9.514;2023-03-01T07:29:04;5.30;;;4.80;;
12976;SDS011;6553;48.412;9.514;2023-03-01T07:31:32;4.90;;;4.50;;
12976;SDS011;6553;48.412;9.514;2023-03-01T07:33:59;5.32;;;4.82;;
12976;SDS011;6553;48.412;9.514;2023-03-01T07:36:25;5.20;;;4.50;;
12976;SDS011;6553;48.412;9.514;2023-03-01T07:38:51;5.80;;;5.30;;
12976;SDS011;6553;48.412;9.514;2023-03-01T07:41:17;5.65;;;5.15;;
12976;SDS011;6553;48.412;9.514;2023-03-01T07:43:43;6.00;;;5.60;;
12976;SDS011;6553;48.412;9.514;2023-03-01T07:46:09;5.45;;;4.95;;
12976;SDS011;6553;48.412;9.514;2023-03-01T07:48:35;5.85;;;5.35;;
12976;SDS011;6553;48.412;9.514;2023-03-01T07:51:02;5.85;;;5.35;;
12976;SDS011;6553;48.412;9.514;2023-03-01T07:53:30;5.70;;;5.20;;
12976;SDS011;6553;48.412;9.514;2023-03-01T07:58:34;5.93;;;4.95;;
12976;SDS011;6553;48.412;9.514;2023-03-01T08:01:05;5.22;;;4.75;;
12976;SDS011;6553;48.412;9.514;2023-03-01T08:03:34;5.75;;;5.15;;
12976;SDS011;6553;48.412;9.514;2023-03-01T08:06:02;4.80;;;4.40;;
12976;SDS011;6553;48.412;9.514;2023-03-01T08:08:31;4.85;;;4.45;;
12976;SDS011;6553;48.412;9.514;2023-03-01T08:10:58;5.72;;;5.20;;
12976;SDS011;6553;48.412;9.514;2023-03-01T08:13:25;5.22;;;4.75;;
12976;SDS011;6553;48.412;9.514;2023-03-01T08:15:52;4.93;;;4.45;;
12976;SDS011;6553;48.412;9.514;2023-03-01T08:18:18;5.03;;;4.63;;
12976;SDS011;6553;48.412;9.514;2023-03-01T08:20:46;5.07;;;4.68;;
12976;SDS011;6553;48.412;9.514;2023-03-01T08:23:12;5.15;;;4.65;;
12976;SDS011;6553;48.412;9.514;2023-03-01T08:25:38;5.82;;;5.25;;
12976;SDS011;6553;48.412;9.514;2023-03-01T08:28:04;5.88;;;5.38;;
12976;SDS011;6553;48.412;9.514;2023-03-01T08:30:31;5.82;;;5.35;;
12976;SDS011;6553;48.412;9.514;2023-03-01T08:32:57;6.03;;;5.43;;
12976;SDS011;6553;48.412;9.514;2023-03-01T08:35:22;6.05;;;5.45;;
12976;SDS011;6553;48.412;9.514;2023-03-01T08:37:48;5.65;;;5.15;;
12976;SDS011;6553;48.412;9.514;2023-03-01T08:40:14;5.90;;;5.40;;
12976;SDS011;6553;48.412;9.514;2023-03-01T08:42:40;5.78;;;5.28;;
12976;SDS011;6553;48.412;9.514;2023-03-01T08:45:10;5.20;;;4.80;;
12976;SDS011;6553;48.412;9.514;2023-03-01T08:47:39;5.88;;;5.28;;
12976;SDS011;6553;48.412;9.514;2023-03-01T08:50:05;5.60;;;5.10;;
12976;SDS011;6553;48.412;9.514;2023-03-01T08:52:32;5.93;;;5.43;;
12976;SDS011;6553;48.412;9.514;2023-03-01T08:54:58;5.90;;;5.40;;
12976;SDS011;6553;48.412;9.514;2023-03-01T08:57:26;5.30;;;4.82;;
12976;SDS011;6553;48.412;9.514;2023-03-01T08:59:52;5.45;;;4.95;;
12976;SDS011;6553;48.412;9.514;2023-03-01T09:02:21;6.43;;;5.82;;
12976;SDS011;6553;48.412;9.514;2023-03-01T09:04:47;5.28;;;4.82;;
12976;SDS011;6553;48.412;9.514;2023-03-01T09:07:13;5.95;;;5.45;;
12976;SDS011;6553;48.412;9.514;2023-03-01T09:09:39;5.47;;;4.97;;
12976;SDS011;6553;48.412;9.514;2023-03-01T09:12:05;6.25;;;5.65;;
12976;SDS011;6553;48.412;9.514;2023-03-01T09:14:31;6.05;;;5.47;;
12976;SDS011;6553;48.412;9.514;2023-03-01T09:16:58;6.03;;;5.43;;
12976;SDS011;6553;48.412;9.514;2023-03-01T09:19:27;6.68;;;5.43;;
12976;SDS011;6553;48.412;9.514;2023-03-01T09:21:54;6.30;;;5.75;;
12976;SDS011;6553;48.412;9.514;2023-03-01T09:24:21;6.35;;;5.60;;
12976;SDS011;6553;48.412;9.514;2023-03-01T09:26:49;6.53;;;5.93;;
12976;SDS011;6553;48.412;9.514;2023-03-01T09:29:18;6.10;;;5.60;;
12976;SDS011;6553;48.412;9.514;2023-03-01T09:31:44;6.05;;;5.45;;
12976;SDS011;6553;48.412;9.514;2023-03-01T09:34:10;6.25;;;5.65;;
12976;SDS011;6553;48.412;9.514;2023-03-01T09:36:36;6.13;;;5.40;;
12976;SDS011;6553;48.412;9.514;2023-03-01T09:39:02;6.03;;;5.53;;
12976;SDS011;6553;48.412;9.514;2023-03-01T09:41:42;5.50;;;5.10;;
12976;SDS011;6553;48.412;9.514;2023-03-01T09:46:56;5.80;;;5.30;;
12976;SDS011;6553;48.412;9.514;2023-03-01T09:53:01;6.07;;;5.57;;
12976;SDS011;6553;48.412;9.514;2023-03-01T09:55:43;5.90;;;5.40;;
12976;SDS011;6553;48.412;9.514;2023-03-01T10:01:40;6.43;;;5.78;;
12976;SDS011;6553;48.412;9.514;2023-03-01T10:10:07;5.68;;;5.18;;
12976;SDS011;6553;48.412;9.514;2023-03-01T10:12:46;5.47;;;5.07;;
12976;SDS011;6553;48.412;9.514;2023-03-01T10:15:20;5.80;;;5.25;;
12976;SDS011;6553;48.412;9.514;2023-03-01T10:18:01;5.90;;;5.40;;
12976;SDS011;6553;48.412;9.514;2023-03-01T10:23:18;6.32;;;5.78;;
12976;SDS011;6553;48.412;9.514;2023-03-01T10:25:52;6.13;;;5.53;;
12976;SDS011;6553;48.412;9.514;2023-03-01T10:28:40;5.97;;;5.38;;
12976;SDS011;6553;48.412;9.514;2023-03-01T10:31:20;5.53;;;5.05;;
12976;SDS011;6553;48.412;9.514;2023-03-01T10:33:53;5.85;;;5.35;;
12976;SDS011;6553;48.412;9.514;2023-03-01T10:36:22;5.88;;;5.38;;
12976;SDS011;6553;48.412;9.514;2023-03-01T10:38:53;6.30;;;5.80;;
12976;SDS011;6553;48.412;9.514;2023-03-01T10:41:23;6.40;;;5.82;;
12976;SDS011;6553;48.412;9.514;2023-03-01T10:43:52;6.40;;;5.80;;
12976;SDS011;6553;48.412;9.514;2023-03-01T10:46:25;6.00;;;5.50;;
12976;SDS011;6553;48.412;9.514;2023-03-01T10:51:51;5.97;;;5.47;;
12976;SDS011;6553;48.412;9.514;2023-03-01T10:54:22;5.80;;;5.30;;
12976;SDS011;6553;48.412;9.514;2023-03-01T10:56:55;5.72;;;5.22;;
12976;SDS011;6553;48.412;9.514;2023-03-01T11:02:01;6.57;;;5.95;;
12976;SDS011;6553;48.412;9.514;2023-03-01T11:04:27;6.32;;;5.72;;
12976;SDS011;6553;48.412;9.514;2023-03-01T11:07:00;6.35;;;5.82;;
12976;SDS011;6553;48.412;9.514;2023-03-01T11:09:30;7.32;;;6.63;;
12976;SDS011;6553;48.412;9.514;2023-03-01T11:12:03;6.20;;;5.70;;
12976;SDS011;6553;48.412;9.514;2023-03-01T11:14:38;5.95;;;5.40;;
12976;SDS011;6553;48.412;9.514;2023-03-01T11:17:17;6.28;;;5.68;;
12976;SDS011;6553;48.412;9.514;2023-03-01T11:20:01;5.72;;;5.22;;
12976;SDS011;6553;48.412;9.514;2023-03-01T11:22:48;6.28;;;5.70;;
12976;SDS011;6553;48.412;9.514;2023-03-01T11:25:26;5.95;;;5.45;;
12976;SDS011;6553;48.412;9.514;2023-03-01T11:28:01;6.53;;;5.93;;
12976;SDS011;6553;48.412;9.514;2023-03-01T11:36:35;5.95;;;5.45;;
12976;SDS011;6553;48.412;9.514;2023-03-01T11:42:00;6.55;;;5.95;;
12976;SDS011;6553;48.412;9.514;2023-03-01T11:44:37;6.28;;;5.68;;
12976;SDS011;6553;48.412;9.514;2023-03-01T11:47:20;6.28;;;5.68;;
12976;SDS011;6553;48.412;9.514;2023-03-01T11:58:19;6.65;;;5.97;;
12976;SDS011;6553;48.412;9.514;2023-03-01T12:01:09;6.70;;;6.10;;
12976;SDS011;6553;48.412;9.514;2023-03-01T12:27:23;6.05;;;5.50;;
12976;SDS011;6553;48.412;9.514;2023-03-01T12:30:09;5.60;;;5.10;;
12976;SDS011;6553;48.412;9.514;2023-03-01T12:33:12;5.68;;;5.18;;
12976;SDS011;6553;48.412;9.514;2023-03-01T12:36:06;6.07;;;5.47;;
12976;SDS011;6553;48.412;9.514;2023-03-01T12:38:59;5.57;;;5.07;;
12976;SDS011;6553;48.412;9.514;2023-03-01T12:41:46;5.90;;;5.32;;
12976;SDS011;6553;48.412;9.514;2023-03-01T12:51:08;5.28;;;4.88;;
12976;SDS011;6553;48.412;9.514;2023-03-01T12:53:44;5.68;;;5.20;;
12976;SDS011;6553;48.412;9.514;2023-03-01T12:56:15;5.18;;;4.63;;
12976;SDS011;6553;48.412;9.514;2023-03-01T13:11:05;5.70;;;5.20;;
12976;SDS011;6553;48.412;9.514;2023-03-01T13:13:41;5.38;;;4.88;;
12976;SDS011;6553;48.412;9.514;2023-03-01T13:16:19;5.50;;;5.00;;
12976;SDS011;6553;48.412;9.514;2023-03-01T13:19:08;9.10;;;5.50;;
12976;SDS011;6553;48.412;9.514;2023-03-01T13:21:41;5.57;;;4.95;;
12976;SDS011;6553;48.412;9.514;2023-03-01T13:29:48;5.72;;;5.18;;
12976;SDS011;6553;48.412;9.514;2023-03-01T13:37:40;5.00;;;4.60;;
12976;SDS011;6553;48.412;9.514;2023-03-01T13:40:56;5.13;;;4.72;;
12976;SDS011;6553;48.412;9.514;2023-03-01T13:42:55;4.88;;;4.47;;
12976;SDS011;6553;48.412;9.514;2023-03-01T13:48:09;5.57;;;5.07;;
12976;SDS011;6553;48.412;9.514;2023-03-01T13:50:55;5.78;;;5.28;;
12976;SDS011;6553;48.412;9.514;2023-03-01T13:53:29;5.47;;;4.97;;
12976;SDS011;6553;48.412;9.514;2023-03-01T13:56:06;4.90;;;4.40;;
12976;SDS011;6553;48.412;9.514;2023-03-01T13:58:48;5.18;;;4.72;;
12976;SDS011;6553;48.412;9.514;2023-03-01T14:03:56;5.25;;;4.82;;
12976;SDS011;6553;48.412;9.514;2023-03-01T14:06:27;4.70;;;4.30;;
12976;SDS011;6553;48.412;9.514;2023-03-01T14:17:36;5.68;;;5.18;;
12976;SDS011;6553;48.412;9.514;2023-03-01T14:20:39;5.47;;;4.63;;
12976;SDS011;6553;48.412;9.514;2023-03-01T14:23:20;5.38;;;4.88;;
12976;SDS011;6553;48.412;9.514;2023-03-01T14:25:53;5.55;;;5.05;;
12976;SDS011;6553;48.412;9.514;2023-03-01T14:28:26;5.50;;;5.00;;
12976;SDS011;6553;48.412;9.514;2023-03-01T14:30:56;5.13;;;4.72;;
12976;SDS011;6553;48.412;9.514;2023-03-01T14:33:29;5.70;;;4.80;;
12976;SDS011;6553;48.412;9.514;2023-03-01T14:36:07;5.50;;;5.00;;
12976;SDS011;6553;48.412;9.514;2023-03-01T14:43:49;5.63;;;5.13;;
12976;SDS011;6553;48.412;9.514;2023-03-01T14:46:24;5.63;;;5.13;;
12976;SDS011;6553;48.412;9.514;2023-03-01T14:49:04;6.03;;;4.93;;
12976;SDS011;6553;48.412;9.514;2023-03-01T14:51:51;5.50;;;4.93;;
12976;SDS011;6553;48.412;9.514;2023-03-01T14:54:39;5.47;;;4.97;;
12976;SDS011;6553;48.412;9.514;2023-03-01T14:57:14;5.78;;;5.18;;
12976;SDS011;6553;48.412;9.514;2023-03-01T14:59:49;5.30;;;4.80;;
12976;SDS011;6553;48.412;9.514;2023-03-01T15:02:20;5.35;;;4.85;;
12976;SDS011;6553;48.412;9.514;2023-03-01T15:04:51;5.43;;;4.88;;
12976;SDS011;6553;48.412;9.514;2023-03-01T15:07:31;5.70;;;5.20;;
12976;SDS011;6553;48.412;9.514;2023-03-01T15:10:04;5.78;;;5.18;;
12976;SDS011;6553;48.412;9.514;2023-03-01T15:12:39;5.90;;;5.30;;
12976;SDS011;6553;48.412;9.514;2023-03-01T15:17:54;8.90;;;5.47;;
12976;SDS011;6553;48.412;9.514;2023-03-01T15:20:25;7.03;;;5.43;;
12976;SDS011;6553;48.412;9.514;2023-03-01T15:22:55;10.25;;;4.93;;
12976;SDS011;6553;48.412;9.514;2023-03-01T15:25:26;8.00;;;5.22;;
12976;SDS011;6553;48.412;9.514;2023-03-01T15:27:55;5.85;;;5.25;;
12976;SDS011;6553;48.412;9.514;2023-03-01T15:30:29;6.18;;;5.05;;
12976;SDS011;6553;48.412;9.514;2023-03-01T15:35:55;6.72;;;5.07;;
12976;SDS011;6553;48.412;9.514;2023-03-01T15:38:31;11.75;;;5.30;;
12976;SDS011;6553;48.412;9.514;2023-03-01T15:41:00;5.63;;;5.05;;
12976;SDS011;6553;48.412;9.514;2023-03-01T15:43:43;6.80;;;5.10;;
12976;SDS011;6553;48.412;9.514;2023-03-01T15:46:22;6.70;;;4.78;;
12976;SDS011;6553;48.412;9.514;2023-03-01T15:49:03;6.65;;;5.10;;
12976;SDS011;6553;48.412;9.514;2023-03-01T15:52:11;4.95;;;4.55;;
12976;SDS011;6553;48.412;9.514;2023-03-01T15:54:54;7.72;;;4.80;;
12976;SDS011;6553;48.412;9.514;2023-03-01T15:57:22;7.78;;;4.97;;
12976;SDS011;6553;48.412;9.514;2023-03-01T15:59:48;5.82;;;4.60;;
12976;SDS011;6553;48.412;9.514;2023-03-01T16:02:14;4.93;;;4.50;;
12976;SDS011;6553;48.412;9.514;2023-03-01T16:04:40;6.57;;;5.30;;
12976;SDS011;6553;48.412;9.514;2023-03-01T16:09:34;7.22;;;5.10;;
12976;SDS011;6553;48.412;9.514;2023-03-01T16:12:01;5.30;;;4.80;;
12976;SDS011;6553;48.412;9.514;2023-03-01T16:14:27;5.50;;;4.63;;
12976;SDS011;6553;48.412;9.514;2023-03-01T16:16:52;6.50;;;4.68;;
12976;SDS011;6553;48.412;9.514;2023-03-01T16:19:18;5.18;;;4.70;;
12976;SDS011;6553;48.412;9.514;2023-03-01T16:21:44;6.13;;;4.70;;
12976;SDS011;6553;48.412;9.514;2023-03-01T16:24:12;5.53;;;4.65;;
12976;SDS011;6553;48.412;9.514;2023-03-01T16:26:38;5.78;;;4.50;;
12976;SDS011;6553;48.412;9.514;2023-03-01T16:29:04;4.85;;;4.45;;
12976;SDS011;6553;48.412;9.514;2023-03-01T16:31:31;5.65;;;5.15;;
12976;SDS011;6553;48.412;9.514;2023-03-01T16:33:57;5.18;;;4.68;;
12976;SDS011;6553;48.412;9.514;2023-03-01T16:36:25;6.90;;;4.85;;
12976;SDS011;6553;48.412;9.514;2023-03-01T16:38:57;5.20;;;4.70;;
12976;SDS011;6553;48.412;9.514;2023-03-01T16:41:25;5.30;;;4.80;;
12976;SDS011;6553;48.412;9.514;2023-03-01T16:43:52;5.45;;;4.50;;
12976;SDS011;6553;48.412;9.514;2023-03-01T16:46:20;5.20;;;4.63;;
12976;SDS011;6553;48.412;9.514;2023-03-01T16:48:53;4.95;;;4.45;;
12976;SDS011;6553;48.412;9.514;2023-03-01T16:51:20;5.05;;;4.60;;
12976;SDS011;6553;48.412;9.514;2023-03-01T16:53:48;4.95;;;4.47;;
12976;SDS011;6553;48.412;9.514;2023-03-01T16:56:15;6.28;;;5.00;;
12976;SDS011;6553;48.412;9.514;2023-03-01T16:58:42;5.95;;;4.70;;
12976;SDS011;6553;48.412;9.514;2023-03-01T17:03:41;5.15;;;4.70;;
12976;SDS011;6553;48.412;9.514;2023-03-01T17:06:09;5.15;;;4.70;;
12976;SDS011;6553;48.412;9.514;2023-03-01T17:08:39;5.03;;;4.60;;
12976;SDS011;6553;48.412;9.514;2023-03-01T17:11:09;5.18;;;4.68;;
12976;SDS011;6553;48.412;9.514;2023-03-01T17:13:39;5.25;;;4.65;;
12976;SDS011;6553;48.412;9.514;2023-03-01T17:16:07;4.75;;;4.35;;
12976;SDS011;6553;48.412;9.514;2023-03-01T17:18:36;5.70;;;5.20;;
12976;SDS011;6553;48.412;9.514;2023-03-01T17:21:03;6.18;;;4.45;;
12976;SDS011;6553;48.412;9.514;2023-03-01T17:23:30;5.90;;;4.88;;
12976;SDS011;6553;48.412;9.514;2023-03-01T17:25:57;5.03;;;4.53;;
12976;SDS011;6553;48.412;9.514;2023-03-01T17:28:27;5.55;;;4.72;;
12976;SDS011;6553;48.412;9.514;2023-03-01T17:30:57;4.50;;;4.10;;
12976;SDS011;6553;48.412;9.514;2023-03-01T17:33:25;5.35;;;4.85;;
12976;SDS011;6553;48.412;9.514;2023-03-01T17:35:52;6.07;;;4.80;;
12976;SDS011;6553;48.412;9.514;2023-03-01T17:38:18;7.03;;;4.95;;
12976;SDS011;6553;48.412;9.514;2023-03-01T17:40:44;5.63;;;5.13;;
12976;SDS011;6553;48.412;9.514;2023-03-01T17:43:11;6.10;;;5.50;;
12976;SDS011;6553;48.412;9.514;2023-03-01T17:45:38;5.60;;;5.10;;
12976;SDS011;6553;48.412;9.514;2023-03-01T17:48:05;6.13;;;5.53;;
12976;SDS011;6553;48.412;9.514;2023-03-01T17:50:32;7.10;;;5.72;;